Thunder radar more information blitzortung!


Löydät sääaseman tiedot myös:

European Weather Network

Finland Weather Exchange

Weather Underground

AWEKAS



Weather Underground säähistoriasivu

Päivittäin yhteenveto Elokuu 29, 2017 Yksiköt:  Englantilaiset    Metriset   Molemmat
« Edellinen Päivä
Seuraava Päivä »
Päivittäin Viikoittain Kuukausittain Vuosittain Mukautettu
  Korkea: Matala: Keskiarvo:
Lämpötila: TemperatureC °F 9.4 °F 13.1 °F
Kastepiste: DewpointC °F 7.6 °F 11.6 °F
Kosteus: Humidity % 83 % 90 %
Tuulen nopeus: WindSpeedKMH mph 0.0 mph 4.8 mph
Tuulenpuuska: WindSpeedGustKMH mph - -
Tuuli:- - SSW
Ilmanpaine: PressurehPa in 1004.3 in -
Sade: 1.5 in    
Historical Graphs
 
 
Taulukkotiedot Elokuu 29, 2017
Aika Lämpötila Kastepiste Ilmanpaine Tuuli Tuulen nopeus Tuulenpuuska Kosteus Sademäärä (tunneittain)
TemperatureC °F DewpointC °F PressurehPa in Calm     Humidity % HourlyPrecipMM in
00:00 9.9 °F 7.9 °F 1012.8 in Calm   6.4 mph 87 % 0.0 in
00:15 9.8 °F 7.7 °F 1012.8 in Calm   4.8 mph 87 % 0.0 in
00:30 9.8 °F 7.9 °F 1012.4 in Calm   6.4 mph 88 % 0.0 in
00:45 9.9 °F 7.8 °F 1012.8 in Calm   3.2 mph 87 % 0.0 in
01:00 10.1 °F 7.8 °F 1012.8 in Calm   9.7 mph 86 % 0.0 in
01:15 10.3 °F 7.9 °F 1012.4 in South 1.6 mph 9.7 mph 85 % 0.0 in
01:30 10.3 °F 7.7 °F 1012.4 in SSW 1.6 mph 9.7 mph 84 % 0.0 in
01:45 10.3 °F 7.6 °F 1012.1 in South 1.6 mph 9.7 mph 83 % 0.0 in
02:00 10.3 °F 7.7 °F 1012.1 in SSW 1.6 mph 11.3 mph 84 % 0.0 in
02:15 10.2 °F 7.8 °F 1011.7 in SSW 1.6 mph 6.4 mph 85 % 0.0 in
02:30 10.0 °F 7.6 °F 1011.7 in SSW 3.2 mph 14.5 mph 85 % 0.0 in
02:45 10.0 °F 7.8 °F 1011.4 in SSW 3.2 mph 9.7 mph 86 % 0.0 in
03:00 10.1 °F 7.8 °F 1011.4 in SSW 4.8 mph 17.7 mph 86 % 0.0 in
03:15 10.1 °F 7.8 °F 1011.1 in SSW 3.2 mph 9.7 mph 86 % 0.0 in
03:30 10.1 °F 8.0 °F 1011.1 in SSW 3.2 mph 11.3 mph 87 % 0.0 in
03:45 9.9 °F 7.8 °F 1010.7 in SSW 1.6 mph 11.3 mph 87 % 0.0 in
04:00 9.8 °F 7.9 °F 1010.7 in South 1.6 mph 8.0 mph 88 % 0.0 in
04:15 9.8 °F 8.1 °F 1011.1 in South 3.2 mph 11.3 mph 89 % 0.0 in
04:30 9.7 °F 8.0 °F 1010.7 in SSW 1.6 mph 6.4 mph 89 % 0.0 in
04:45 9.6 °F 8.0 °F 1010.7 in South 1.6 mph 6.4 mph 90 % 0.0 in
05:00 9.4 °F 8.0 °F 1010.4 in South 1.6 mph 11.3 mph 91 % 0.0 in
05:15 9.4 °F 8.2 °F 1010.4 in South 1.6 mph 9.7 mph 92 % 0.0 in
05:30 9.4 °F 8.2 °F 1010.4 in South 3.2 mph 9.7 mph 92 % 0.0 in
05:45 9.4 °F 8.2 °F 1010.4 in South 1.6 mph 12.9 mph 92 % 0.0 in
06:00 9.4 °F 8.4 °F 1010.0 in South 3.2 mph 11.3 mph 93 % 0.0 in
06:15 9.7 °F 8.8 °F 1010.0 in South 3.2 mph 14.5 mph 94 % 0.0 in
06:30 9.8 °F 8.8 °F 1010.0 in SSE 1.6 mph 8.0 mph 93 % 0.0 in
07:00 10.2 °F 9.3 °F 1009.4 in South 1.6 mph 9.7 mph 94 % 0.0 in
07:15 10.5 °F 9.6 °F 1009.0 in South 3.2 mph 12.9 mph 94 % 0.0 in
07:30 10.9 °F 10.0 °F 1009.0 in South 3.2 mph 19.3 mph 94 % 0.0 in
07:45 11.3 °F 10.6 °F 1009.0 in South 3.2 mph 14.5 mph 95 % 0.0 in
08:00 11.8 °F 10.8 °F 1008.7 in South 4.8 mph 16.1 mph 94 % 0.0 in
08:15 12.1 °F 11.0 °F 1008.7 in SSE 3.2 mph 8.0 mph 93 % 0.0 in
08:30 12.2 °F 11.3 °F 1008.4 in SSW 1.6 mph 8.0 mph 94 % 0.0 in
08:45 12.6 °F 11.5 °F 1008.4 in South 4.8 mph 19.3 mph 93 % 0.0 in
09:15 13.1 °F 11.7 °F 1008.0 in SSW 4.8 mph 17.7 mph 91 % 0.0 in
09:30 13.3 °F 11.9 °F 1008.0 in South 4.8 mph 11.3 mph 91 % 0.0 in
09:45 13.6 °F 12.0 °F 1008.0 in SSW 4.8 mph 14.5 mph 90 % 0.0 in
10:00 13.8 °F 12.2 °F 1007.7 in South 4.8 mph 14.5 mph 90 % 0.0 in
10:15 14.0 °F 12.4 °F 1007.7 in SSW 4.8 mph 16.1 mph 90 % 0.0 in
10:30 14.1 °F 12.5 °F 1007.7 in SSW 8.0 mph 24.1 mph 90 % 0.0 in
10:45 14.2 °F 12.5 °F 1007.7 in SSW 6.4 mph 14.5 mph 90 % 0.0 in
11:00 14.2 °F 12.7 °F 1007.7 in SSW 6.4 mph 14.5 mph 91 % 0.0 in
11:15 14.3 °F 12.7 °F 1007.3 in SSW 6.4 mph 16.1 mph 90 % 0.0 in
11:30 14.4 °F 12.8 °F 1007.3 in SSW 4.8 mph 16.1 mph 90 % 0.0 in
11:45 14.6 °F 13.1 °F 1007.0 in SSW 4.8 mph 17.7 mph 91 % 0.0 in
12:00 14.4 °F 13.2 °F 1007.0 in SSW 3.2 mph 12.9 mph 92 % 0.3 in
12:15 14.4 °F 13.3 °F 1007.0 in SSW 4.8 mph 14.5 mph 93 % 0.3 in
12:30 14.5 °F 13.2 °F 1007.0 in South 6.4 mph 22.5 mph 92 % 0.3 in
12:45 14.7 °F 13.4 °F 1006.7 in SSW 6.4 mph 17.7 mph 92 % 0.3 in
13:00 14.8 °F 13.4 °F 1006.7 in SSW 6.4 mph 19.3 mph 91 % 0.0 in
13:15 14.8 °F 13.4 °F 1006.3 in SSW 8.0 mph 17.7 mph 91 % 0.0 in
13:30 14.7 °F 13.4 °F 1006.7 in SSW 4.8 mph 16.1 mph 92 % 0.0 in
13:45 14.8 °F 13.3 °F 1006.7 in SSW 9.7 mph 24.1 mph 91 % 0.0 in
14:15 15.0 °F 13.4 °F 1006.3 in SSW 4.8 mph 12.9 mph 90 % 0.0 in
14:30 15.1 °F 13.4 °F 1006.3 in SSW 8.0 mph 17.7 mph 90 % 0.0 in
14:45 15.1 °F 13.4 °F 1006.3 in SSW 6.4 mph 16.1 mph 90 % 0.0 in
15:00 15.1 °F 13.6 °F 1006.3 in SSW 4.8 mph 12.9 mph 91 % 0.0 in
15:15 15.2 °F 13.5 °F 1006.0 in SSW 8.0 mph 17.7 mph 90 % 0.0 in
15:30 15.3 °F 13.5 °F 1006.0 in SSW 8.0 mph 20.9 mph 89 % 0.0 in
15:45 15.4 °F 13.8 °F 1006.0 in SSW 8.0 mph 22.5 mph 90 % 0.0 in
16:00 15.2 °F 13.8 °F 1006.0 in SSW 8.0 mph 25.7 mph 91 % 0.0 in
16:15 15.1 °F 13.8 °F 1006.0 in SSW 8.0 mph 19.3 mph 92 % 0.0 in
16:30 15.1 °F 13.9 °F 1006.0 in SSW 8.0 mph 19.3 mph 93 % 0.0 in
16:45 15.0 °F 13.9 °F 1005.6 in SSW 8.0 mph 19.3 mph 93 % 0.0 in
17:00 15.0 °F 14.0 °F 1005.6 in SSW 8.0 mph 14.5 mph 94 % 0.0 in
17:15 14.9 °F 14.0 °F 1005.6 in SSW 6.4 mph 17.7 mph 94 % 0.0 in
17:30 14.9 °F 14.2 °F 1005.3 in SSW 4.8 mph 14.5 mph 95 % 0.0 in
17:45 15.1 °F 14.2 °F 1005.3 in SSW 6.4 mph 12.9 mph 94 % 0.0 in
18:00 15.6 °F 14.4 °F 1005.3 in SSW 6.4 mph 17.7 mph 93 % 0.0 in
18:15 15.8 °F 14.4 °F 1005.6 in SSW 9.7 mph 25.7 mph 91 % 0.0 in
18:30 15.9 °F 14.5 °F 1005.6 in SSW 9.7 mph 20.9 mph 91 % 0.0 in
18:45 16.0 °F 14.4 °F 1005.3 in SSW 6.4 mph 16.1 mph 90 % 0.0 in
19:00 16.0 °F 14.4 °F 1005.6 in SSW 6.4 mph 17.7 mph 90 % 0.0 in
19:15 16.1 °F 14.4 °F 1005.3 in SSW 6.4 mph 19.3 mph 90 % 0.0 in
19:30 16.1 °F 14.2 °F 1005.0 in SSW 8.0 mph 17.7 mph 89 % 0.0 in
19:45 16.1 °F 14.3 °F 1005.3 in SSW 6.4 mph 14.5 mph 89 % 0.0 in
20:00 16.1 °F 14.4 °F 1005.0 in SSW 8.0 mph 19.3 mph 90 % 0.0 in
20:15 15.9 °F 14.5 °F 1005.3 in SSW 6.4 mph 19.3 mph 91 % 0.0 in
20:30 15.6 °F 14.3 °F 1005.3 in SSW 6.4 mph 22.5 mph 92 % 0.3 in
20:45 15.3 °F 14.4 °F 1005.3 in SSW 4.8 mph 14.5 mph 94 % 0.5 in
21:00 15.2 °F 14.4 °F 1005.3 in South 4.8 mph 12.9 mph 95 % 0.8 in
21:15 15.1 °F 14.5 °F 1005.3 in SSW 4.8 mph 14.5 mph 96 % 1.0 in
21:30 15.1 °F 14.4 °F 1005.0 in SSW 4.8 mph 16.1 mph 96 % 1.0 in
21:45 15.1 °F 14.4 °F 1005.0 in South 4.8 mph 11.3 mph 96 % 0.8 in
22:00 15.1 °F 14.4 °F 1004.6 in SSW 6.4 mph 14.5 mph 96 % 0.5 in
22:15 15.1 °F 14.4 °F 1005.0 in SSW 6.4 mph 14.5 mph 96 % 0.3 in
22:30 15.1 °F 14.4 °F 1004.6 in SSW 6.4 mph 17.7 mph 96 % 0.0 in
22:45 15.0 °F 14.4 °F 1004.6 in SSW 8.0 mph 14.5 mph 96 % 0.0 in
23:00 15.0 °F 14.2 °F 1004.3 in SSW 6.4 mph 17.7 mph 95 % 0.0 in
23:15 15.1 °F 14.4 °F 1004.6 in SSW 8.0 mph 19.3 mph 96 % 0.0 in
23:30 15.1 °F 14.3 °F 1004.3 in SSW 8.0 mph 25.7 mph 95 % 0.0 in
23:45 15.1 °F 14.3 °F 1004.3 in SSW 6.4 mph 20.9 mph 95 % 0.0 in
Esan sääasema
Terveisin Weather Underground - 2.75 mb

Alkuperäinen skripti  Jim McMurry - jmcmurry@mwt.net Sovitettu myös templatelle  Wim van der Kuil - Leuven-Template.eu

Laitteet joita käytämme:

Sääasema
Davis VP2

Sääasemaohjelma
Cumulus

Sääaseman tietokone
Asus EeePC

Palveluntarjoaja
Suncomet

Davis VP2

Cumulus

Asus EeePC

Suncomet